createdAt,value
2022-11-29T00:02:06.910Z,22.24
2022-11-29T00:04:39.408Z,22.24
2022-11-29T00:07:09.613Z,22.27
2022-11-29T00:09:39.383Z,22.22
2022-11-29T00:12:16.134Z,22.21
2022-11-29T00:14:47.177Z,22.21
2022-11-29T00:17:17.844Z,22.21
2022-11-29T00:19:48.209Z,22.17
2022-11-29T00:22:18.463Z,22.17
2022-11-29T00:24:48.770Z,22.16
2022-11-29T00:27:19.569Z,22.16
2022-11-29T00:29:49.822Z,22.13
2022-11-29T00:32:20.066Z,22.08
2022-11-29T00:34:50.491Z,22.11
2022-11-29T00:37:20.518Z,22.08
2022-11-29T00:39:50.262Z,22.06
2022-11-29T00:42:21.799Z,22.04
2022-11-29T00:44:51.983Z,22.03
2022-11-29T00:47:22.099Z,22.07
2022-11-29T00:49:52.263Z,22.00
2022-11-29T00:52:22.564Z,22.00
2022-11-29T00:54:52.736Z,21.96
2022-11-29T00:57:22.861Z,21.93
2022-11-29T00:59:53.126Z,21.89
2022-11-29T01:02:22.923Z,21.87
2022-11-29T01:04:53.062Z,21.96
2022-11-29T01:07:22.989Z,21.93
2022-11-29T01:09:52.945Z,21.90
2022-11-29T01:12:22.710Z,21.90
2022-11-29T01:14:52.607Z,21.87
2022-11-29T01:17:23.331Z,21.86
2022-11-29T01:19:53.429Z,21.79
2022-11-29T01:22:23.688Z,21.77
2022-11-29T01:24:53.889Z,21.76
2022-11-29T01:27:24.343Z,21.75
2022-11-29T01:29:54.624Z,21.76
2022-11-29T01:32:25.034Z,21.73
2022-11-29T01:34:55.311Z,21.69
2022-11-29T01:37:25.077Z,21.66
2022-11-29T01:39:55.221Z,21.67
2022-11-29T01:42:26.038Z,21.62
2022-11-29T01:45:24.907Z,21.59
2022-11-29T01:47:58.742Z,21.59
2022-11-29T01:50:28.984Z,21.60
2022-11-29T01:52:59.510Z,21.59
2022-11-29T01:55:30.001Z,21.59
2022-11-29T01:58:02.237Z,21.57
2022-11-29T02:00:32.580Z,21.55
2022-11-29T02:03:17.622Z,21.55
2022-11-29T02:05:52.113Z,21.47
2022-11-29T02:08:37.991Z,21.49
2022-11-29T02:11:34.095Z,21.46
2022-11-29T02:14:07.402Z,21.47
2022-11-29T02:16:52.224Z,21.46
2022-11-29T02:19:57.207Z,21.46
2022-11-29T02:22:55.793Z,21.43
2022-11-29T02:25:35.276Z,21.43
2022-11-29T02:28:42.255Z,21.39
2022-11-29T02:31:49.059Z,21.41
2022-11-29T02:34:47.175Z,21.34
2022-11-29T02:37:26.626Z,21.36
2022-11-29T02:40:36.997Z,21.36
2022-11-29T02:43:25.492Z,21.35
2022-11-29T02:46:17.488Z,21.36
2022-11-29T02:49:23.948Z,21.34
2022-11-29T02:52:00.167Z,21.34
2022-11-29T02:54:47.073Z,21.32
2022-11-29T02:57:29.866Z,21.31
2022-11-29T03:00:06.427Z,21.32
2022-11-29T03:03:04.132Z,21.29
2022-11-29T03:06:01.043Z,21.32
2022-11-29T03:08:48.400Z,21.34
2022-11-29T03:11:40.718Z,21.32
2022-11-29T03:14:32.351Z,21.31
2022-11-29T03:17:45.697Z,21.26
2022-11-29T03:20:23.714Z,21.25
2022-11-29T03:23:12.151Z,21.21
2022-11-29T03:25:45.765Z,21.22
2022-11-29T03:28:22.073Z,21.21
2022-11-29T03:31:34.438Z,21.15
2022-11-29T03:34:10.690Z,21.09
2022-11-29T03:36:58.240Z,21.08
2022-11-29T03:39:46.734Z,21.05
2022-11-29T03:42:32.365Z,21.08
2022-11-29T03:45:08.006Z,21.06
2022-11-29T03:47:50.509Z,21.05
2022-11-29T03:50:29.373Z,21.06
2022-11-29T03:53:14.297Z,21.09
2022-11-29T03:56:02.933Z,21.09
2022-11-29T03:58:42.314Z,21.15
2022-11-29T04:01:23.226Z,21.18
2022-11-29T04:04:11.562Z,21.18
2022-11-29T04:06:47.751Z,21.11
2022-11-29T04:09:36.122Z,21.08
2022-11-29T04:12:24.650Z,21.08
2022-11-29T04:15:35.442Z,21.08
2022-11-29T04:18:25.817Z,21.11
2022-11-29T04:21:08.332Z,21.06
2022-11-29T04:24:15.183Z,21.08
2022-11-29T04:27:20.043Z,21.02
2022-11-29T04:30:15.972Z,21.09
2022-11-29T04:33:33.674Z,21.09
2022-11-29T04:36:16.377Z,20.99
2022-11-29T04:38:46.085Z,20.95
2022-11-29T04:41:43.798Z,21.01
2022-11-29T04:44:51.934Z,21.02
2022-11-29T04:47:31.271Z,21.05
2022-11-29T04:50:13.411Z,21.04
2022-11-29T04:52:54.529Z,20.83
2022-11-29T04:55:50.267Z,20.87
2022-11-29T04:58:38.594Z,20.70
2022-11-29T05:01:45.949Z,20.67
2022-11-29T05:04:27.967Z,20.60
2022-11-29T05:07:18.991Z,20.63
2022-11-29T05:09:57.464Z,20.54
2022-11-29T05:12:39.358Z,20.50
2022-11-29T05:15:30.718Z,20.61
2022-11-29T05:18:28.341Z,20.68
2022-11-29T05:21:18.404Z,20.71
2022-11-29T05:24:19.506Z,20.71
2022-11-29T05:26:59.095Z,20.68
2022-11-29T05:29:43.027Z,20.73
2022-11-29T05:32:37.438Z,20.67
2022-11-29T05:35:25.135Z,20.67
2022-11-29T05:38:20.958Z,20.53
2022-11-29T05:41:18.362Z,20.57
2022-11-29T05:44:26.816Z,20.60
2022-11-29T05:47:05.491Z,20.48
2022-11-29T05:49:38.842Z,20.53
2022-11-29T05:52:38.362Z,20.51
2022-11-29T05:55:27.079Z,20.53
2022-11-29T05:58:15.459Z,20.51
2022-11-29T06:01:09.441Z,20.54
2022-11-29T06:03:47.663Z,20.56
2022-11-29T06:06:29.624Z,20.67
2022-11-29T06:09:02.687Z,20.71
2022-11-29T06:11:59.673Z,20.60
2022-11-29T06:14:53.823Z,20.63
2022-11-29T06:17:38.831Z,20.58
2022-11-29T06:20:33.849Z,20.51
2022-11-29T06:23:22.367Z,20.54
2022-11-29T06:26:02.262Z,20.57
2022-11-29T06:28:37.831Z,20.63
2022-11-29T06:31:19.358Z,20.68
2022-11-29T06:34:11.281Z,20.61
2022-11-29T06:36:44.334Z,20.61
2022-11-29T06:39:15.244Z,20.48
2022-11-29T06:41:45.546Z,20.47
2022-11-29T06:44:15.396Z,20.32
2022-11-29T06:46:50.016Z,20.36
2022-11-29T06:49:34.643Z,20.40
2022-11-29T06:52:22.035Z,20.46
2022-11-29T06:55:14.063Z,20.37
2022-11-29T06:57:59.796Z,20.32
2022-11-29T07:00:49.571Z,20.41
2022-11-29T07:03:31.784Z,20.19
2022-11-29T07:06:10.269Z,20.30
2022-11-29T07:08:41.931Z,20.36
2022-11-29T07:11:15.725Z,20.32
2022-11-29T07:13:46.299Z,20.34
2022-11-29T07:16:26.528Z,20.36
2022-11-29T07:18:59.680Z,20.33
2022-11-29T07:21:47.436Z,20.33
2022-11-29T07:24:47.990Z,20.36
2022-11-29T07:27:29.369Z,20.32
2022-11-29T07:30:14.369Z,20.34
2022-11-29T07:32:59.843Z,20.30
2022-11-29T07:36:05.808Z,20.36
2022-11-29T07:38:48.536Z,20.40
2022-11-29T07:41:25.274Z,20.44
2022-11-29T07:43:55.384Z,20.41
2022-11-29T07:46:26.840Z,20.39
2022-11-29T07:48:57.175Z,20.34
2022-11-29T07:51:27.639Z,20.30
2022-11-29T07:53:57.878Z,20.26
2022-11-29T07:56:27.683Z,20.09
2022-11-29T07:58:58.067Z,20.02
2022-11-29T08:01:28.427Z,20.05
2022-11-29T08:03:58.997Z,19.90
2022-11-29T08:06:29.273Z,19.95
2022-11-29T08:08:59.574Z,20.00
2022-11-29T08:11:30.158Z,20.06
2022-11-29T08:14:02.702Z,20.09
2022-11-29T08:16:33.529Z,20.09
2022-11-29T08:19:03.936Z,20.12
2022-11-29T08:21:33.644Z,20.12
2022-11-29T08:24:04.130Z,20.08
2022-11-29T08:26:35.494Z,20.10
2022-11-29T08:29:05.749Z,20.16
2022-11-29T08:31:36.124Z,20.15
2022-11-29T08:34:10.557Z,20.15
2022-11-29T08:36:41.048Z,20.15
2022-11-29T08:39:11.321Z,20.05
2022-11-29T08:41:41.193Z,19.87
2022-11-29T08:44:11.335Z,19.87
2022-11-29T08:46:59.573Z,20.00
2022-11-29T08:49:29.900Z,20.09
2022-11-29T08:52:17.799Z,20.19
2022-11-29T08:54:48.374Z,20.15
2022-11-29T09:00:10.367Z,20.27
2022-11-29T09:02:41.126Z,20.37
2022-11-29T09:05:12.989Z,20.46
2022-11-29T09:07:43.646Z,20.50
2022-11-29T09:10:14.273Z,20.56
2022-11-29T09:12:45.743Z,20.63
2022-11-29T09:15:16.381Z,20.70
2022-11-29T09:17:46.630Z,20.75
2022-11-29T09:20:16.450Z,20.84
2022-11-29T09:22:46.352Z,20.92
2022-11-29T09:25:16.489Z,20.95
2022-11-29T09:27:46.741Z,21.08
2022-11-29T09:30:22.119Z,21.22
2022-11-29T09:32:53.771Z,21.36
2022-11-29T09:35:23.510Z,21.42
2022-11-29T09:37:53.512Z,21.46
2022-11-29T09:40:27.098Z,21.50
2022-11-29T09:43:28.330Z,21.62
2022-11-29T09:46:04.180Z,21.66
2022-11-29T09:49:12.924Z,21.77
2022-11-29T09:51:57.114Z,21.87
2022-11-29T09:54:37.254Z,21.87
2022-11-29T09:57:10.986Z,22.01
2022-11-29T10:00:05.150Z,22.14
2022-11-29T10:02:39.769Z,22.20
2022-11-29T10:05:33.325Z,22.52
2022-11-29T10:08:25.288Z,22.44
2022-11-29T10:11:01.736Z,22.71
2022-11-29T10:13:37.375Z,22.94
2022-11-29T10:16:22.576Z,23.00
2022-11-29T10:19:12.473Z,23.09
2022-11-29T10:21:46.821Z,23.08
2022-11-29T10:24:21.604Z,23.17
2022-11-29T10:26:51.979Z,23.20
2022-11-29T10:29:23.011Z,23.40
2022-11-29T10:31:57.852Z,23.58
2022-11-29T10:34:32.647Z,23.67
2022-11-29T10:37:04.130Z,23.58
2022-11-29T10:39:54.803Z,23.67
2022-11-29T10:42:46.531Z,23.84
2022-11-29T10:45:36.685Z,23.88
2022-11-29T10:48:16.022Z,24.07
2022-11-29T10:50:49.724Z,24.19
2022-11-29T10:53:25.037Z,24.25
2022-11-29T10:55:55.265Z,24.30
2022-11-29T10:58:28.731Z,24.26
2022-11-29T11:01:04.101Z,24.38
2022-11-29T11:03:47.000Z,24.48
2022-11-29T11:06:25.782Z,24.55
2022-11-29T11:09:31.519Z,24.70
2022-11-29T11:12:09.349Z,24.75
2022-11-29T11:14:40.867Z,24.91
2022-11-29T11:17:18.376Z,25.20
2022-11-29T11:20:07.398Z,25.42
2022-11-29T11:22:41.043Z,25.45
2022-11-29T11:25:39.457Z,24.89
2022-11-29T11:28:24.696Z,24.83
2022-11-29T11:31:04.395Z,25.27
2022-11-29T11:33:47.751Z,24.97
2022-11-29T11:36:25.321Z,25.00
2022-11-29T11:39:10.909Z,25.24
2022-11-29T11:42:03.125Z,25.58
2022-11-29T11:44:47.457Z,25.50
2022-11-29T11:47:25.639Z,25.77
2022-11-29T11:50:04.929Z,25.55
2022-11-29T11:52:55.093Z,25.58
2022-11-29T11:55:48.465Z,25.69
2022-11-29T11:58:23.470Z,25.64
2022-11-29T12:01:04.268Z,25.86
2022-11-29T12:03:53.329Z,26.50
2022-11-29T12:06:29.703Z,26.49
2022-11-29T12:09:19.748Z,26.69
2022-11-29T12:12:02.005Z,26.40
2022-11-29T12:14:55.361Z,26.39
2022-11-29T12:17:43.220Z,26.26
2022-11-29T12:20:29.449Z,26.06
2022-11-29T12:23:15.130Z,26.39
2022-11-29T12:25:51.402Z,26.64
2022-11-29T12:28:21.854Z,26.54
2022-11-29T12:31:16.541Z,26.29
2022-11-29T12:33:49.304Z,26.23
2022-11-29T12:36:46.983Z,26.08
2022-11-29T12:39:20.297Z,25.91
2022-11-29T12:42:31.545Z,26.18
2022-11-29T12:45:23.227Z,26.80
2022-11-29T12:48:15.958Z,26.50
2022-11-29T12:51:07.354Z,26.37
2022-11-29T12:53:40.341Z,26.49
2022-11-29T12:56:28.788Z,26.79
2022-11-29T12:59:07.853Z,26.86
2022-11-29T13:02:23.896Z,26.59
2022-11-29T13:05:00.033Z,26.40
2022-11-29T13:07:54.519Z,26.92
2022-11-29T13:10:39.686Z,27.15
2022-11-29T13:13:15.443Z,27.07
2022-11-29T13:16:07.077Z,26.97
2022-11-29T13:18:46.026Z,27.58
2022-11-29T13:21:27.610Z,27.65
2022-11-29T13:24:12.777Z,27.58
2022-11-29T13:26:44.796Z,27.65
2022-11-29T13:29:18.348Z,27.79
2022-11-29T13:31:49.381Z,27.70
2022-11-29T13:34:44.339Z,27.67
2022-11-29T13:37:39.096Z,27.61
2022-11-29T13:40:26.754Z,27.81
2022-11-29T13:43:33.627Z,27.73
2022-11-29T13:46:34.633Z,27.88
2022-11-29T13:49:05.082Z,27.93
2022-11-29T13:51:42.690Z,27.83
2022-11-29T13:54:34.883Z,27.85
2022-11-29T13:57:09.451Z,27.69
2022-11-29T13:59:47.250Z,28.79
2022-11-29T14:02:32.946Z,29.15
2022-11-29T14:05:03.422Z,29.33
2022-11-29T14:07:34.599Z,28.95
2022-11-29T14:10:28.309Z,28.98
2022-11-29T14:13:01.077Z,29.15
2022-11-29T14:15:33.391Z,29.09
2022-11-29T14:18:10.068Z,28.72
2022-11-29T14:20:45.711Z,29.12
2022-11-29T14:23:17.365Z,29.06
2022-11-29T14:25:56.375Z,28.68
2022-11-29T14:28:26.579Z,28.62
2022-11-29T14:31:04.115Z,28.99
2022-11-29T14:33:40.528Z,29.64
2022-11-29T14:36:51.972Z,28.71
2022-11-29T14:39:45.332Z,29.09
2022-11-29T14:42:28.223Z,28.88
2022-11-29T14:45:02.670Z,28.81
2022-11-29T14:47:49.458Z,29.50
2022-11-29T14:50:41.095Z,29.54
2022-11-29T14:53:32.056Z,30.13
2022-11-29T14:56:31.774Z,30.24
2022-11-29T14:59:42.440Z,30.36
2022-11-29T15:02:52.653Z,30.44
2022-11-29T15:05:43.156Z,29.67
2022-11-29T15:08:28.764Z,29.78
2022-11-29T15:11:34.872Z,29.83
2022-11-29T15:14:09.147Z,29.57
2022-11-29T15:16:59.956Z,30.62
2022-11-29T15:20:02.847Z,30.49
2022-11-29T15:22:49.818Z,30.15
2022-11-29T15:25:29.827Z,29.72
2022-11-29T15:28:02.689Z,29.57
2022-11-29T15:30:43.745Z,30.32
2022-11-29T15:33:27.434Z,30.58
2022-11-29T15:36:05.817Z,30.36
2022-11-29T15:38:48.774Z,30.59
2022-11-29T15:41:28.991Z,30.74
2022-11-29T15:44:01.855Z,30.01
2022-11-29T15:46:35.331Z,30.45
2022-11-29T15:49:26.531Z,30.93
2022-11-29T15:52:06.708Z,30.65
2022-11-29T15:54:44.701Z,31.07
2022-11-29T15:57:19.997Z,30.69
2022-11-29T15:59:59.815Z,29.81
2022-11-29T16:02:36.340Z,30.69
2022-11-29T16:05:12.219Z,30.93
2022-11-29T16:07:43.122Z,30.89
2022-11-29T16:10:19.502Z,30.48
2022-11-29T16:13:01.579Z,30.20
2022-11-29T16:15:42.115Z,29.98
2022-11-29T16:18:20.635Z,29.77
2022-11-29T16:21:05.700Z,29.30
2022-11-29T16:23:38.217Z,28.99
2022-11-29T16:26:33.323Z,29.08
2022-11-29T16:29:03.688Z,30.45
2022-11-29T16:31:39.677Z,29.97
2022-11-29T16:34:10.633Z,30.14
2022-11-29T16:36:40.942Z,30.62
2022-11-29T16:39:25.672Z,30.24
2022-11-29T16:42:14.960Z,30.28
2022-11-29T16:44:48.872Z,29.87
2022-11-29T16:47:24.476Z,30.28
2022-11-29T16:50:04.021Z,29.74
2022-11-29T16:52:35.431Z,29.98
2022-11-29T16:55:05.851Z,30.61
2022-11-29T16:57:36.243Z,30.75
2022-11-29T17:00:25.316Z,30.71
2022-11-29T17:02:55.679Z,31.07
2022-11-29T17:05:26.378Z,30.80
2022-11-29T17:07:57.182Z,30.49
2022-11-29T17:10:27.663Z,30.61
2022-11-29T17:12:57.970Z,30.44
2022-11-29T17:15:28.240Z,30.49
2022-11-29T17:17:58.591Z,30.51
2022-11-29T17:20:28.824Z,29.74
2022-11-29T17:22:59.625Z,30.39
2022-11-29T17:25:29.898Z,30.61
2022-11-29T17:28:00.522Z,30.85
2022-11-29T17:30:31.327Z,30.76
2022-11-29T17:33:02.062Z,30.04
2022-11-29T17:35:32.316Z,29.91
2022-11-29T17:38:02.596Z,30.27
2022-11-29T17:40:32.856Z,29.98
2022-11-29T17:43:03.189Z,29.69
2022-11-29T17:45:33.267Z,29.96
2022-11-29T17:48:03.575Z,29.98
2022-11-29T17:50:33.813Z,29.76
2022-11-29T17:53:03.826Z,29.87
2022-11-29T17:55:33.844Z,29.80
2022-11-29T17:58:04.225Z,29.64
2022-11-29T18:00:34.395Z,29.84
2022-11-29T18:03:04.895Z,29.76
2022-11-29T18:05:35.136Z,29.73
2022-11-29T18:08:07.108Z,29.42
2022-11-29T18:10:37.589Z,29.39
2022-11-29T18:13:07.899Z,29.46
2022-11-29T18:15:38.221Z,29.93
2022-11-29T18:18:08.564Z,30.18
2022-11-29T18:20:38.731Z,30.54
2022-11-29T18:23:08.305Z,30.46
2022-11-29T18:25:39.865Z,30.44
2022-11-29T18:28:12.792Z,30.35
2022-11-29T18:30:43.147Z,30.55
2022-11-29T18:33:13.365Z,30.62
2022-11-29T18:35:43.610Z,30.42
2022-11-29T18:38:16.069Z,30.32
2022-11-29T18:40:47.153Z,30.17
2022-11-29T18:43:18.077Z,30.29
2022-11-29T18:45:48.399Z,29.87
2022-11-29T18:48:18.902Z,29.64
2022-11-29T18:50:49.169Z,29.66
2022-11-29T18:53:19.468Z,29.70
2022-11-29T18:55:49.693Z,29.74
2022-11-29T18:58:19.679Z,29.84
2022-11-29T19:00:50.117Z,30.10
2022-11-29T19:03:20.201Z,30.18
2022-11-29T19:05:55.548Z,30.17
2022-11-29T19:08:26.766Z,29.96
2022-11-29T19:10:56.945Z,29.77
2022-11-29T19:13:27.277Z,29.81
2022-11-29T19:15:58.087Z,29.88
2022-11-29T19:18:28.445Z,29.90
2022-11-29T19:21:16.393Z,29.85
2022-11-29T19:23:47.349Z,30.00
2022-11-29T19:26:17.788Z,30.04
2022-11-29T19:28:49.116Z,30.13
2022-11-29T19:31:22.004Z,29.98
2022-11-29T19:33:53.730Z,30.00
2022-11-29T19:36:27.080Z,29.85
2022-11-29T19:38:58.137Z,29.77
2022-11-29T19:41:29.611Z,29.84
2022-11-29T19:44:02.216Z,29.87
2022-11-29T19:46:41.302Z,29.88
2022-11-29T19:49:12.121Z,30.00
2022-11-29T19:51:42.640Z,29.87
2022-11-29T19:54:13.266Z,29.87
2022-11-29T19:56:43.852Z,29.74
2022-11-29T19:59:14.147Z,29.62
2022-11-29T20:01:44.382Z,29.70
2022-11-29T20:04:18.041Z,29.76
2022-11-29T20:06:48.806Z,29.96
2022-11-29T20:09:19.246Z,29.81
2022-11-29T20:11:49.533Z,29.66
2022-11-29T20:14:19.871Z,29.33
2022-11-29T20:16:50.091Z,29.16
2022-11-29T20:19:19.809Z,29.25
2022-11-29T20:21:50.889Z,29.25
2022-11-29T20:24:21.228Z,29.08
2022-11-29T20:26:51.864Z,28.90
2022-11-29T20:29:23.492Z,28.90
2022-11-29T20:31:53.818Z,28.81
2022-11-29T20:34:24.252Z,28.68
2022-11-29T20:37:17.835Z,28.61
2022-11-29T20:40:12.446Z,28.45
2022-11-29T20:43:07.434Z,28.36
2022-11-29T20:45:38.677Z,28.23
2022-11-29T20:48:24.792Z,28.10
2022-11-29T20:50:59.994Z,27.99
2022-11-29T20:53:44.552Z,27.89
2022-11-29T20:56:15.150Z,27.93
2022-11-29T20:58:45.733Z,27.74
2022-11-29T21:01:16.103Z,27.62
2022-11-29T21:03:46.512Z,27.58
2022-11-29T21:06:16.919Z,27.66
2022-11-29T21:08:47.239Z,27.56
2022-11-29T21:11:17.753Z,27.22
2022-11-29T21:13:48.941Z,27.14
2022-11-29T21:16:19.570Z,27.08
2022-11-29T21:18:50.487Z,26.92
2022-11-29T21:21:37.205Z,26.83
2022-11-29T21:24:07.993Z,26.80
2022-11-29T21:26:51.547Z,26.83
2022-11-29T21:29:25.977Z,26.91
2022-11-29T21:31:56.973Z,26.83
2022-11-29T21:34:27.247Z,26.69
2022-11-29T21:37:01.616Z,26.60
2022-11-29T21:39:36.047Z,26.56
2022-11-29T21:42:06.593Z,26.53
2022-11-29T21:44:36.965Z,27.49
2022-11-29T21:47:07.337Z,27.85
2022-11-29T21:49:37.678Z,26.81
2022-11-29T21:52:08.216Z,26.57
2022-11-29T21:54:38.599Z,26.44
2022-11-29T21:57:08.827Z,26.28
2022-11-29T21:59:38.884Z,26.12
2022-11-29T22:02:10.140Z,25.95
2022-11-29T22:04:40.411Z,25.79
2022-11-29T22:07:11.358Z,25.64
2022-11-29T22:09:41.559Z,25.54
2022-11-29T22:12:32.290Z,25.42
2022-11-29T22:15:02.088Z,25.33
2022-11-29T22:17:31.614Z,25.26
2022-11-29T22:20:01.428Z,25.13
2022-11-29T22:22:31.646Z,25.00
2022-11-29T22:25:01.874Z,24.99
2022-11-29T22:27:32.045Z,24.94
2022-11-29T22:30:02.340Z,24.86
2022-11-29T22:32:33.194Z,24.76
2022-11-29T22:35:03.449Z,24.75
2022-11-29T22:37:33.854Z,24.72
2022-11-29T22:40:04.094Z,24.72
2022-11-29T22:42:34.411Z,24.60
2022-11-29T22:45:05.753Z,24.56
2022-11-29T22:47:36.089Z,24.43
2022-11-29T22:50:07.193Z,24.36
2022-11-29T22:52:37.531Z,24.28
2022-11-29T22:55:08.104Z,24.26
2022-11-29T22:57:38.427Z,24.22
2022-11-29T23:00:09.440Z,24.17
2022-11-29T23:02:39.746Z,24.11
2022-11-29T23:05:09.451Z,24.07
2022-11-29T23:07:39.476Z,24.08
2022-11-29T23:10:10.387Z,24.05
2022-11-29T23:12:40.687Z,23.97
2022-11-29T23:15:11.151Z,23.98
2022-11-29T23:17:41.482Z,23.94
2022-11-29T23:20:12.313Z,23.94
2022-11-29T23:23:01.863Z,23.93
2022-11-29T23:25:32.077Z,23.93
2022-11-29T23:28:02.288Z,23.88
2022-11-29T23:30:32.539Z,23.88
2022-11-29T23:33:03.194Z,23.78
2022-11-29T23:35:33.445Z,23.75
2022-11-29T23:38:03.784Z,23.74
2022-11-29T23:40:34.178Z,23.71
2022-11-29T23:43:04.639Z,23.71
2022-11-29T23:45:37.180Z,23.70
2022-11-29T23:48:07.646Z,23.61
2022-11-29T23:50:37.914Z,23.60
2022-11-29T23:53:08.193Z,23.56
2022-11-29T23:55:38.501Z,23.51
2022-11-29T23:58:09.449Z,23.49
